Time;durP1;ratioP1;P1;durP2;ratioP2;P2;SDS_P1;SDS_P2;PMS_P1;PMS_P2;Temp;Humidity;BMP_temperature;BMP_pressure;BME280_temperature;BME280_humidity;BME280_pressure;Samples;Min_cycle;Max_cycle;Signal;HPM_P1;HPM_P2
2022/06/26 00:00:56;;;;;;;;;;;26.30;44.60;;;;;;1527192;77;734;-67
2022/06/26 00:02:58;;;;;;;;;;;26.40;44.50;;;;;;1517309;77;1153;-67
2022/06/26 00:05:00;;;;;;;;;;;26.40;44.60;;;;;;1504960;77;735;-67
2022/06/26 00:07:03;;;;;;;;;;;26.40;44.60;;;;;;1514893;77;664;-67
2022/06/26 00:09:05;;;;;;;;;;;26.40;44.60;;;;;;1520545;77;710;-66
2022/06/26 00:11:07;;;;;;;;;;;26.40;44.60;;;;;;1512658;77;1388;-67
2022/06/26 00:13:09;;;;;;;;;;;26.40;44.60;;;;;;1521927;77;1187;-67
2022/06/26 00:15:11;;;;;;;;;;;26.40;44.60;;;;;;1509909;77;828;-67
2022/06/26 00:17:13;;;;;;;;;;;26.40;44.60;;;;;;1511565;77;1941;-67
2022/06/26 00:19:15;;;;;;;;;;;26.40;44.60;;;;;;1524593;77;825;-67
2022/06/26 00:21:17;;;;;;;;;;;26.40;44.70;;;;;;1528435;77;826;-66
2022/06/26 00:23:19;;;;;;;;;;;26.40;44.70;;;;;;1518335;77;1165;-66
2022/06/26 00:25:20;;;;;;;;;;;26.30;44.70;;;;;;1504713;77;1562;-68
2022/06/26 00:27:22;;;;;;;;;;;26.40;44.70;;;;;;1512530;77;657;-67
2022/06/26 00:29:24;;;;;;;;;;;26.30;44.60;;;;;;1537123;76;731;-66
2022/06/26 00:31:26;;;;;;;;;;;26.30;44.60;;;;;;1521520;77;687;-66
2022/06/26 00:33:28;;;;;;;;;;;26.30;44.70;;;;;;1526994;76;1115;-67
2022/06/26 00:35:30;;;;;;;;;;;26.30;44.70;;;;;;1490022;78;624;-67
2022/06/26 00:37:32;;;;;;;;;;;26.30;44.70;;;;;;1542017;76;1956;-67
2022/06/26 00:39:34;;;;;;;;;;;26.30;44.70;;;;;;1494854;78;1615;-67
2022/06/26 00:41:36;;;;;;;;;;;26.30;44.70;;;;;;1494155;78;707;-67
2022/06/26 00:43:37;;;;;;;;;;;26.30;44.70;;;;;;1536407;76;1132;-67
2022/06/26 00:45:39;;;;;;;;;;;26.40;44.70;;;;;;1531676;76;678;-67
2022/06/26 00:47:41;;;;;;;;;;;26.30;44.70;;;;;;1525026;77;700;-65
2022/06/26 00:49:44;;;;;;;;;;;26.30;44.70;;;;;;1527214;76;694;-67
2022/06/26 00:51:48;;;;;;;;;;;26.30;44.70;;;;;;1532375;76;751;-66
2022/06/26 00:53:50;;;;;;;;;;;26.40;44.60;;;;;;1514425;76;1531;-66
2022/06/26 00:55:51;;;;;;;;;;;26.30;44.70;;;;;;1545683;76;683;-65
2022/06/26 00:57:53;;;;;;;;;;;26.30;44.70;;;;;;1530540;76;1966;-73
2022/06/26 00:59:56;;;;;;;;;;;26.30;44.70;;;;;;1525179;76;676;-69
2022/06/26 01:01:58;;;;;;;;;;;26.30;44.70;;;;;;1525836;77;1167;-71
2022/06/26 01:04:00;;;;;;;;;;;26.30;44.70;;;;;;1522386;76;792;-71
2022/06/26 01:06:03;;;;;;;;;;;26.40;44.60;;;;;;1530622;76;648;-67
2022/06/26 01:08:07;;;;;;;;;;;26.30;44.50;;;;;;1528619;76;1561;-70
2022/06/26 01:10:09;;;;;;;;;;;26.30;44.70;;;;;;1527482;76;666;-70
2022/06/26 01:12:11;;;;;;;;;;;26.30;44.70;;;;;;1528569;76;1169;-70
2022/06/26 01:14:13;;;;;;;;;;;26.30;44.70;;;;;;1539299;74;227573;-55
2022/06/26 01:16:15;;;;;;;;;;;26.30;44.80;;;;;;1573104;75;1139;-56
2022/06/26 01:18:17;;;;;;;;;;;26.30;44.80;;;;;;1579450;74;1926;-60
2022/06/26 01:20:19;;;;;;;;;;;26.40;44.90;;;;;;1563740;74;1339;-56
2022/06/26 01:22:20;;;;;;;;;;;26.40;44.90;;;;;;1571955;75;662;-56
2022/06/26 01:24:22;;;;;;;;;;;26.40;44.80;;;;;;1546692;75;770;-58
2022/06/26 01:26:24;;;;;;;;;;;26.40;44.80;;;;;;1547450;75;1122;-57
2022/06/26 01:28:26;;;;;;;;;;;26.40;44.80;;;;;;1533570;76;723;-58
2022/06/26 01:30:28;;;;;;;;;;;26.50;45.00;;;;;;1549838;76;688;-57
2022/06/26 01:32:30;;;;;;;;;;;26.60;44.80;;;;;;1546384;76;699;-57
2022/06/26 01:34:32;;;;;;;;;;;26.60;44.70;;;;;;1546382;75;1440;-58
2022/06/26 01:36:34;;;;;;;;;;;26.60;44.70;;;;;;1546740;76;1939;-57
2022/06/26 01:38:36;;;;;;;;;;;26.70;44.70;;;;;;1527794;76;846;-57
2022/06/26 01:40:38;;;;;;;;;;;26.70;44.60;;;;;;1543783;75;744;-58
2022/06/26 01:42:40;;;;;;;;;;;26.60;44.60;;;;;;1550813;75;755;-58
2022/06/26 01:44:42;;;;;;;;;;;26.70;44.50;;;;;;1563931;75;683;-57
2022/06/26 01:46:44;;;;;;;;;;;26.70;44.50;;;;;;1548690;75;1129;-58
2022/06/26 01:48:46;;;;;;;;;;;26.60;44.40;;;;;;1554605;75;1441;-57
2022/06/26 01:50:48;;;;;;;;;;;26.70;44.40;;;;;;1544527;76;695;-58
2022/06/26 01:52:49;;;;;;;;;;;26.70;44.40;;;;;;1531685;76;669;-57
2022/06/26 01:54:51;;;;;;;;;;;26.70;44.40;;;;;;1541260;76;1101;-58
2022/06/26 01:56:53;;;;;;;;;;;26.70;44.40;;;;;;1541613;76;1966;-58
2022/06/26 01:58:55;;;;;;;;;;;26.70;44.40;;;;;;1546064;76;751;-58
2022/06/26 02:00:57;;;;;;;;;;;26.60;44.40;;;;;;1541755;76;688;-57
2022/06/26 02:02:59;;;;;;;;;;;26.70;44.40;;;;;;1546483;75;1475;-58
2022/06/26 02:05:01;;;;;;;;;;;26.70;44.50;;;;;;1548516;76;665;-58
2022/06/26 02:07:03;;;;;;;;;;;26.70;44.50;;;;;;1535338;75;1179;-57
2022/06/26 02:09:04;;;;;;;;;;;26.70;44.50;;;;;;1543925;76;740;-58
2022/06/26 02:13:43;;;;;;;;;;;26.70;44.60;;;;;;1535417;76;723;-58
2022/06/26 02:15:41;;;;;;;;;;;26.70;44.60;;;;;;1534053;76;1675;-58
2022/06/26 02:17:43;;;;;;;;;;;26.70;44.70;;;;;;1543445;75;1946;-59
2022/06/26 02:19:45;;;;;;;;;;;26.70;44.70;;;;;;1543850;77;652;-59
2022/06/26 02:21:47;;;;;;;;;;;26.70;44.50;;;;;;1537965;76;747;-59
2022/06/26 02:23:49;;;;;;;;;;;26.70;44.60;;;;;;1543073;76;770;-58
2022/06/26 02:25:51;;;;;;;;;;;26.70;44.60;;;;;;1539577;77;681;-58
2022/06/26 02:27:53;;;;;;;;;;;26.70;44.60;;;;;;1539116;76;1140;-58
2022/06/26 02:29:55;;;;;;;;;;;26.70;44.70;;;;;;1532961;77;711;-58
2022/06/26 02:31:57;;;;;;;;;;;26.80;44.70;;;;;;1548365;75;1476;-58
2022/06/26 02:33:59;;;;;;;;;;;26.70;44.70;;;;;;1544030;75;693;-59
2022/06/26 02:36:01;;;;;;;;;;;26.70;44.70;;;;;;1546880;76;1111;-58
2022/06/26 02:38:03;;;;;;;;;;;26.70;44.70;;;;;;1533839;76;1920;-58
2022/06/26 02:40:05;;;;;;;;;;;26.70;44.70;;;;;;1541393;76;756;-59
2022/06/26 02:42:07;;;;;;;;;;;26.70;44.70;;;;;;1537185;77;564;-58
2022/06/26 02:44:09;;;;;;;;;;;26.80;44.70;;;;;;1545101;76;653;-59
2022/06/26 02:46:11;;;;;;;;;;;26.90;44.70;;;;;;1548683;76;1586;-59
2022/06/26 02:48:12;;;;;;;;;;;26.90;44.70;;;;;;1536021;75;747;-58
2022/06/26 02:50:15;;;;;;;;;;;26.80;44.70;;;;;;1538465;75;701;-58
2022/06/26 02:52:17;;;;;;;;;;;26.70;44.70;;;;;;1540101;76;820;-58
2022/06/26 02:54:19;;;;;;;;;;;26.80;44.70;;;;;;1539760;75;722;-58
2022/06/26 02:56:21;;;;;;;;;;;26.70;44.70;;;;;;1547730;75;1175;-58
2022/06/26 02:58:24;;;;;;;;;;;26.80;44.70;;;;;;1534028;75;1948;-59
2022/06/26 03:00:26;;;;;;;;;;;26.80;44.70;;;;;;1548802;76;1471;-58
2022/06/26 03:02:28;;;;;;;;;;;26.70;44.80;;;;;;1552182;75;716;-58
2022/06/26 03:04:29;;;;;;;;;;;26.90;44.70;;;;;;1543218;76;599;-59
2022/06/26 03:06:31;;;;;;;;;;;26.90;44.70;;;;;;1535076;75;1143;-59
2022/06/26 03:08:33;;;;;;;;;;;26.80;44.70;;;;;;1544304;76;681;-61
2022/06/26 03:10:36;;;;;;;;;;;26.80;44.70;;;;;;1545286;76;687;-59
2022/06/26 03:12:44;;;;;;;;;;;26.80;44.80;;;;;;1545910;76;577;-60
2022/06/26 03:14:46;;;;;;;;;;;26.80;44.70;;;;;;1546658;76;1532;-58
2022/06/26 03:16:48;;;;;;;;;;;26.80;44.70;;;;;;1551611;75;1145;-59
2022/06/26 03:18:50;;;;;;;;;;;26.90;44.70;;;;;;1531236;76;1941;-59
2022/06/26 03:20:52;;;;;;;;;;;26.90;44.70;;;;;;1546914;77;682;-59
2022/06/26 03:22:54;;;;;;;;;;;26.90;44.70;;;;;;1548582;76;684;-59
2022/06/26 03:24:56;;;;;;;;;;;26.80;44.80;;;;;;1548481;76;708;-59
2022/06/26 03:26:58;;;;;;;;;;;26.80;44.70;;;;;;1549182;76;1454;-58
2022/06/26 03:29:00;;;;;;;;;;;26.80;44.80;;;;;;1548805;76;673;-59
2022/06/26 03:31:01;;;;;;;;;;;26.80;44.80;;;;;;1552054;75;757;-59
2022/06/26 03:33:03;;;;;;;;;;;26.80;44.80;;;;;;1543694;77;626;-57
2022/06/26 03:35:05;;;;;;;;;;;26.80;44.80;;;;;;1548136;76;589;-58
2022/06/26 03:37:07;;;;;;;;;;;26.80;44.80;;;;;;1531689;76;1126;-58
2022/06/26 03:39:09;;;;;;;;;;;26.80;44.90;;;;;;1529469;75;1937;-56
2022/06/26 03:41:11;;;;;;;;;;;26.70;44.90;;;;;;1537981;76;1501;-57
2022/06/26 03:43:13;;;;;;;;;;;26.80;44.90;;;;;;1539635;76;1028;-58
2022/06/26 03:45:15;;;;;;;;;;;26.80;45.00;;;;;;1544599;76;682;-57
2022/06/26 03:47:17;;;;;;;;;;;26.80;45.00;;;;;;1549773;75;1130;-57
2022/06/26 03:49:19;;;;;;;;;;;26.90;45.00;;;;;;1544578;75;698;-56
2022/06/26 03:51:21;;;;;;;;;;;26.80;45.00;;;;;;1529692;76;688;-56
2022/06/26 03:53:23;;;;;;;;;;;26.80;45.00;;;;;;1545148;75;645;-56
2022/06/26 03:55:25;;;;;;;;;;;26.90;45.00;;;;;;1540000;76;1463;-56
2022/06/26 03:57:27;;;;;;;;;;;26.90;45.00;;;;;;1539657;76;1952;-57
2022/06/26 03:59:29;;;;;;;;;;;26.90;45.00;;;;;;1539535;76;626;-57
2022/06/26 04:01:31;;;;;;;;;;;26.90;45.00;;;;;;1550699;76;658;-57
2022/06/26 04:03:33;;;;;;;;;;;26.90;45.10;;;;;;1524013;75;669;-56
2022/06/26 04:05:35;;;;;;;;;;;26.80;45.10;;;;;;1541810;76;721;-57
2022/06/26 04:07:37;;;;;;;;;;;26.80;45.10;;;;;;1538928;76;1102;-56
2022/06/26 04:09:39;;;;;;;;;;;26.80;45.10;;;;;;1533222;76;1381;-56
2022/06/26 04:11:41;;;;;;;;;;;26.80;45.10;;;;;;1542091;76;719;-57
2022/06/26 04:13:43;;;;;;;;;;;26.80;45.10;;;;;;1542199;76;704;-57
2022/06/26 04:15:44;;;;;;;;;;;26.80;45.20;;;;;;1550513;75;794;-56
2022/06/26 04:17:46;;;;;;;;;;;26.90;45.10;;;;;;1548421;76;1939;-57
2022/06/26 04:19:49;;;;;;;;;;;26.80;45.10;;;;;;1542909;76;667;-56
2022/06/26 04:21:51;;;;;;;;;;;26.90;45.10;;;;;;1543167;77;700;-56
2022/06/26 04:23:53;;;;;;;;;;;26.90;45.10;;;;;;1544639;76;1570;-57
2022/06/26 04:25:55;;;;;;;;;;;26.90;45.10;;;;;;1545646;76;658;-56
2022/06/26 04:27:56;;;;;;;;;;;26.90;45.10;;;;;;1534592;76;672;-56
2022/06/26 04:29:58;;;;;;;;;;;26.90;45.10;;;;;;1543790;75;733;-56
2022/06/26 04:32:00;;;;;;;;;;;26.90;45.20;;;;;;1552064;75;645;-55
2022/06/26 04:34:02;;;;;;;;;;;26.80;45.10;;;;;;1537352;76;571;-56
2022/06/26 04:36:04;;;;;;;;;;;26.90;45.10;;;;;;1546518;76;1137;-56
2022/06/26 04:38:06;;;;;;;;;;;26.90;45.10;;;;;;1534331;76;1932;-58
2022/06/26 04:40:08;;;;;;;;;;;26.90;45.10;;;;;;1554403;76;663;-56
2022/06/26 04:42:10;;;;;;;;;;;26.80;45.20;;;;;;1559317;76;715;-56
2022/06/26 04:44:12;;;;;;;;;;;26.80;45.10;;;;;;1560029;74;800;-56
2022/06/26 04:46:14;;;;;;;;;;;26.90;45.20;;;;;;1561304;74;1161;-56
2022/06/26 04:48:16;;;;;;;;;;;26.90;45.20;;;;;;1552590;76;676;-57
2022/06/26 04:50:18;;;;;;;;;;;26.90;45.20;;;;;;1559159;75;668;-56
2022/06/26 04:52:20;;;;;;;;;;;26.90;45.20;;;;;;1555471;74;1617;-56
2022/06/26 04:54:22;;;;;;;;;;;26.80;45.20;;;;;;1558752;75;600;-55
2022/06/26 04:56:23;;;;;;;;;;;26.80;45.20;;;;;;1552209;76;1150;-57
2022/06/26 04:58:25;;;;;;;;;;;26.90;45.20;;;;;;1555771;76;1931;-56
2022/06/26 05:00:27;;;;;;;;;;;26.90;45.20;;;;;;1547139;74;669;-56
2022/06/26 05:02:29;;;;;;;;;;;26.90;45.20;;;;;;1546359;76;718;-57
2022/06/26 05:04:31;;;;;;;;;;;26.90;45.20;;;;;;1555431;76;637;-57
2022/06/26 05:06:33;;;;;;;;;;;26.90;45.10;;;;;;1552155;76;1454;-56
2022/06/26 05:08:35;;;;;;;;;;;26.90;45.10;;;;;;1544307;76;681;-56
2022/06/26 05:10:37;;;;;;;;;;;26.90;45.10;;;;;;1548239;75;715;-56
2022/06/26 05:12:38;;;;;;;;;;;26.90;45.20;;;;;;1555801;76;769;-57
2022/06/26 05:14:40;;;;;;;;;;;26.90;45.10;;;;;;1560317;74;770;-58
2022/06/26 05:16:42;;;;;;;;;;;26.90;45.20;;;;;;1556654;75;1114;-57
2022/06/26 05:18:44;;;;;;;;;;;26.90;45.20;;;;;;1553865;76;1938;-57
2022/06/26 05:20:46;;;;;;;;;;;26.90;45.20;;;;;;1557672;76;1532;-57
2022/06/26 05:22:48;;;;;;;;;;;26.90;45.30;;;;;;1551447;75;740;-57
2022/06/26 05:24:50;;;;;;;;;;;26.90;45.30;;;;;;1561561;75;690;-56
2022/06/26 05:26:52;;;;;;;;;;;26.90;45.30;;;;;;1554463;75;1103;-56
2022/06/26 05:28:54;;;;;;;;;;;26.90;45.40;;;;;;1558822;76;648;-56
2022/06/26 05:30:55;;;;;;;;;;;27.00;46.00;;;;;;1561882;74;654;-57
2022/06/26 05:32:57;;;;;;;;;;;27.10;46.00;;;;;;1555234;76;683;-56
2022/06/26 05:34:59;;;;;;;;;;;26.90;45.30;;;;;;1552406;74;1670;-56
2022/06/26 05:37:01;;;;;;;;;;;27.00;46.00;;;;;;1559314;75;1124;-56
2022/06/26 05:39:03;;;;;;;;;;;27.00;45.90;;;;;;1558363;75;1922;-56
2022/06/26 05:41:05;;;;;;;;;;;27.00;45.90;;;;;;1556253;75;741;-54
2022/06/26 05:43:07;;;;;;;;;;;27.10;45.90;;;;;;1560374;75;650;-56
2022/06/26 05:45:09;;;;;;;;;;;27.00;46.00;;;;;;1557548;74;705;-57
2022/06/26 05:47:11;;;;;;;;;;;27.10;45.80;;;;;;1562024;75;1111;-56
2022/06/26 05:49:13;;;;;;;;;;;27.10;45.90;;;;;;1561510;74;1373;-57
2022/06/26 05:51:14;;;;;;;;;;;27.10;45.90;;;;;;1565371;74;675;-56
2022/06/26 05:53:17;;;;;;;;;;;27.20;45.80;;;;;;1559672;75;685;-54
2022/06/26 05:55:19;;;;;;;;;;;27.10;45.70;;;;;;1557788;75;695;-54
2022/06/26 05:57:21;;;;;;;;;;;27.10;45.80;;;;;;1558154;76;1143;-54
2022/06/26 05:59:23;;;;;;;;;;;27.20;45.80;;;;;;1556050;74;1933;-55
2022/06/26 06:01:24;;;;;;;;;;;27.10;45.80;;;;;;1567680;74;643;-55
2022/06/26 06:03:26;;;;;;;;;;;27.20;45.70;;;;;;1549449;74;1545;-54
2022/06/26 06:05:28;;;;;;;;;;;27.10;45.80;;;;;;1549823;75;692;-57
2022/06/26 06:07:30;;;;;;;;;;;27.30;45.80;;;;;;1557627;75;1096;-57
2022/06/26 06:09:32;;;;;;;;;;;27.30;45.70;;;;;;1559737;76;642;-56
2022/06/26 06:11:34;;;;;;;;;;;27.30;45.70;;;;;;1544472;75;717;-58
2022/06/26 06:13:36;;;;;;;;;;;27.20;45.80;;;;;;1557228;75;685;-55
2022/06/26 06:15:38;;;;;;;;;;;27.30;45.80;;;;;;1553501;75;1474;-55
2022/06/26 06:17:44;;;;;;;;;;;27.20;45.80;;;;;;1559213;74;1146;-55
2022/06/26 06:19:43;;;;;;;;;;;27.20;45.80;;;;;;1552439;76;1918;-58
2022/06/26 06:21:45;;;;;;;;;;;27.30;45.80;;;;;;1559553;76;711;-59
2022/06/26 06:23:47;;;;;;;;;;;27.30;45.80;;;;;;1545872;76;733;-57
2022/06/26 06:25:49;;;;;;;;;;;27.30;45.80;;;;;;1558739;75;669;-58
2022/06/26 06:27:51;;;;;;;;;;;27.30;45.70;;;;;;1553247;76;1083;-57
2022/06/26 06:29:53;;;;;;;;;;;27.30;45.70;;;;;;1562039;74;1449;-55
2022/06/26 06:31:55;;;;;;;;;;;27.30;45.70;;;;;;1554483;75;702;-56
2022/06/26 06:33:57;;;;;;;;;;;27.30;45.70;;;;;;1559928;75;698;-58
2022/06/26 06:35:58;;;;;;;;;;;27.40;45.70;;;;;;1555289;75;1048;-58
2022/06/26 06:38:00;;;;;;;;;;;27.40;45.70;;;;;;1548744;74;703;-59
2022/06/26 06:40:02;;;;;;;;;;;27.40;45.70;;;;;;1559018;75;1930;-57
2022/06/26 06:42:04;;;;;;;;;;;27.30;45.70;;;;;;1545828;74;672;-56
2022/06/26 06:44:06;;;;;;;;;;;27.40;45.80;;;;;;1551966;74;1471;-57
2022/06/26 06:46:08;;;;;;;;;;;27.40;45.70;;;;;;1547823;75;1143;-57
2022/06/26 06:48:10;;;;;;;;;;;27.40;45.60;;;;;;1549247;75;730;-56
2022/06/26 06:50:12;;;;;;;;;;;27.40;45.60;;;;;;1553136;75;634;-57
2022/06/26 06:52:14;;;;;;;;;;;27.50;45.70;;;;;;1558157;76;581;-57
2022/06/26 06:54:16;;;;;;;;;;;27.40;45.70;;;;;;1560157;76;726;-58
2022/06/26 06:56:17;;;;;;;;;;;27.40;45.70;;;;;;1558625;75;1196;-57
2022/06/26 06:58:19;;;;;;;;;;;27.40;45.70;;;;;;1545953;74;1364;-57
2022/06/26 07:00:21;;;;;;;;;;;27.40;45.70;;;;;;1558420;76;1952;-56
2022/06/26 07:02:23;;;;;;;;;;;27.50;45.70;;;;;;1547144;75;660;-56
2022/06/26 07:04:25;;;;;;;;;;;27.40;45.60;;;;;;1554673;75;697;-60
2022/06/26 07:06:27;;;;;;;;;;;27.50;45.70;;;;;;1539546;75;1128;-57
2022/06/26 07:08:29;;;;;;;;;;;27.50;45.60;;;;;;1559413;75;672;-56
2022/06/26 07:10:31;;;;;;;;;;;27.50;45.60;;;;;;1559639;76;680;-56
2022/06/26 07:12:33;;;;;;;;;;;27.50;45.60;;;;;;1549932;75;1470;-55
2022/06/26 07:14:34;;;;;;;;;;;27.50;45.50;;;;;;1552702;74;228473;-70
2022/06/26 07:16:36;;;;;;;;;;;27.50;45.50;;;;;;1554825;75;667;-70
2022/06/26 07:18:38;;;;;;;;;;;27.60;45.50;;;;;;1555531;75;1946;-69
2022/06/26 07:20:40;;;;;;;;;;;27.50;45.70;;;;;;1546673;75;699;-70
2022/06/26 07:22:42;;;;;;;;;;;27.50;45.70;;;;;;1564711;75;683;-71
2022/06/26 07:24:44;;;;;;;;;;;27.40;45.90;;;;;;1583099;74;1183;-69
2022/06/26 07:26:46;;;;;;;;;;;27.50;45.90;;;;;;1593192;73;1355;-70
2022/06/26 07:28:48;;;;;;;;;;;27.40;46.10;;;;;;1551497;75;714;-70
2022/06/26 07:30:50;;;;;;;;;;;27.30;46.30;;;;;;1504667;77;744;-70
2022/06/26 07:32:51;;;;;;;;;;;27.30;46.30;;;;;;1549374;75;708;-72
2022/06/26 07:34:53;;;;;;;;;;;27.40;46.10;;;;;;1509195;77;1083;-70
2022/06/26 07:36:55;;;;;;;;;;;27.40;46.10;;;;;;1543214;75;781;-69
2022/06/26 07:38:57;;;;;;;;;;;27.40;46.00;;;;;;1548687;75;1958;-70
2022/06/26 07:40:59;;;;;;;;;;;27.40;46.00;;;;;;1545839;75;1626;-71
2022/06/26 07:43:01;;;;;;;;;;;27.60;45.80;;;;;;1546092;76;783;-71
2022/06/26 07:45:03;;;;;;;;;;;27.60;45.80;;;;;;1521137;76;1195;-72
2022/06/26 07:47:05;;;;;;;;;;;27.60;45.70;;;;;;1527694;77;775;-71
2022/06/26 07:49:07;;;;;;;;;;;27.60;45.70;;;;;;1548687;75;658;-71
2022/06/26 07:51:09;;;;;;;;;;;27.60;45.70;;;;;;1531160;76;672;-71
2022/06/26 07:53:11;;;;;;;;;;;27.50;45.70;;;;;;1523334;76;1154;-71
2022/06/26 07:55:12;;;;;;;;;;;27.50;45.70;;;;;;1530735;76;1609;-70
2022/06/26 07:57:14;;;;;;;;;;;27.60;45.60;;;;;;1544036;76;682;-70
2022/06/26 07:59:16;;;;;;;;;;;27.60;45.60;;;;;;1532524;76;1940;-69
2022/06/26 08:01:18;;;;;;;;;;;27.40;45.80;;;;;;1536854;76;679;-71
2022/06/26 08:03:20;;;;;;;;;;;27.40;45.90;;;;;;1543184;75;1170;-71
2022/06/26 08:05:22;;;;;;;;;;;27.40;46.10;;;;;;1548787;76;763;-70
2022/06/26 08:07:24;;;;;;;;;;;27.50;46.00;;;;;;1542912;75;790;-72
2022/06/26 08:09:26;;;;;;;;;;;27.50;45.90;;;;;;1506623;77;1443;-70
2022/06/26 08:11:27;;;;;;;;;;;27.50;45.90;;;;;;1508698;77;756;-70
2022/06/26 08:13:29;;;;;;;;;;;27.60;45.90;;;;;;1507255;77;1131;-72
2022/06/26 08:15:31;;;;;;;;;;;27.60;45.80;;;;;;1508964;77;783;-70
2022/06/26 08:17:33;;;;;;;;;;;27.60;45.80;;;;;;1511964;77;669;-70
2022/06/26 08:19:35;;;;;;;;;;;27.60;45.80;;;;;;1508444;77;1937;-72
2022/06/26 08:23:57;;;;;;;;;;;27.40;46.20;;;;;;1512054;77;1658;-70
2022/06/26 08:25:59;;;;;;;;;;;27.30;46.30;;;;;;1515847;77;726;-70
2022/06/26 08:28:00;;;;;;;;;;;27.20;46.60;;;;;;1510920;77;752;-70
2022/06/26 08:30:03;;;;;;;;;;;27.20;46.70;;;;;;1510888;77;702;-71
2022/06/26 08:32:05;;;;;;;;;;;27.10;46.80;;;;;;1510644;77;743;-71
2022/06/26 08:34:06;;;;;;;;;;;27.10;47.00;;;;;;1532653;75;1135;-69
2022/06/26 08:36:08;;;;;;;;;;;27.10;47.20;;;;;;1540721;75;789;-73
2022/06/26 08:38:10;;;;;;;;;;;27.10;47.40;;;;;;1519337;77;1570;-71
2022/06/26 08:40:12;;;;;;;;;;;27.10;47.70;;;;;;1557327;75;1931;-71
2022/06/26 08:42:14;;;;;;;;;;;27.10;47.70;;;;;;1504773;77;725;-70
2022/06/26 08:44:16;;;;;;;;;;;27.10;47.60;;;;;;1512664;77;1153;-69
2022/06/26 08:46:18;;;;;;;;;;;27.10;47.60;;;;;;1524137;77;681;-70
2022/06/26 08:48:20;;;;;;;;;;;27.10;47.60;;;;;;1552953;75;610;-74
2022/06/26 08:50:22;;;;;;;;;;;27.20;47.70;;;;;;1532152;76;1508;-70
2022/06/26 08:52:24;;;;;;;;;;;27.20;47.80;;;;;;1530965;76;754;-70
2022/06/26 08:54:26;;;;;;;;;;;27.10;47.70;;;;;;1519953;77;1068;-72
2022/06/26 08:56:28;;;;;;;;;;;27.40;47.20;;;;;;1531981;76;713;-71
2022/06/26 08:58:30;;;;;;;;;;;27.40;46.80;;;;;;1545149;76;690;-72
2022/06/26 09:00:32;;;;;;;;;;;27.50;46.70;;;;;;1543481;75;1928;-74
2022/06/26 09:02:34;;;;;;;;;;;27.50;47.10;;;;;;1549570;75;747;-71
2022/06/26 09:04:39;;;;;;;;;;;27.40;47.20;;;;;;1539240;76;1465;-71
2022/06/26 09:06:41;;;;;;;;;;;27.30;47.40;;;;;;1513349;77;698;-77
2022/06/26 09:08:44;;;;;;;;;;;27.40;47.20;;;;;;1532005;77;658;-68
2022/06/26 09:10:46;;;;;;;;;;;27.40;47.10;;;;;;1554032;76;935;-68
2022/06/26 09:12:53;;;;;;;;;;;27.50;47.00;;;;;;1534127;76;781;-71
2022/06/26 09:14:54;;;;;;;;;;;27.50;47.20;;;;;;1545641;75;1847;-70
2022/06/26 09:16:57;;;;;;;;;;;27.50;47.20;;;;;;1544482;75;703;-71
2022/06/26 09:19:09;;;;;;;;;;;27.60;46.80;;;;;;1511164;77;1540;-71
2022/06/26 09:21:11;;;;;;;;;;;27.70;46.60;;;;;;1516589;77;1942;-69
2022/06/26 09:23:13;;;;;;;;;;;27.70;46.30;;;;;;1550346;75;1146;-71
2022/06/26 09:25:15;;;;;;;;;;;27.70;46.00;;;;;;1554194;75;714;-71
2022/06/26 09:27:17;;;;;;;;;;;27.70;46.00;;;;;;1537594;76;644;-71
2022/06/26 09:29:19;;;;;;;;;;;27.60;46.00;;;;;;1524606;76;771;-71
2022/06/26 09:31:21;;;;;;;;;;;27.70;45.70;;;;;;1528545;76;713;-71
2022/06/26 09:33:24;;;;;;;;;;;27.70;45.50;;;;;;1531602;76;1565;-71
2022/06/26 09:35:26;;;;;;;;;;;27.70;45.30;;;;;;1532250;76;717;-70
2022/06/26 09:37:30;;;;;;;;;;;27.70;45.30;;;;;;1527776;76;713;-71
2022/06/26 09:39:32;;;;;;;;;;;27.70;45.00;;;;;;1532537;76;1935;-71
2022/06/26 09:41:34;;;;;;;;;;;27.70;44.40;;;;;;1536165;76;689;-71
2022/06/26 09:43:36;;;;;;;;;;;27.70;45.00;;;;;;1533457;77;1139;-71
2022/06/26 09:45:39;;;;;;;;;;;27.70;44.70;;;;;;1528283;76;565;-70
2022/06/26 09:47:42;;;;;;;;;;;27.70;44.90;;;;;;1531053;76;1578;-69
2022/06/26 09:49:44;;;;;;;;;;;27.70;44.00;;;;;;1539742;75;694;-71
2022/06/26 09:51:47;;;;;;;;;;;27.60;44.50;;;;;;1548884;75;694;-71
2022/06/26 09:53:48;;;;;;;;;;;27.70;44.70;;;;;;1497469;77;1137;-72
2022/06/26 09:55:51;;;;;;;;;;;27.80;44.60;;;;;;1579750;74;748;-71
2022/06/26 09:57:53;;;;;;;;;;;27.70;44.40;;;;;;1582058;74;769;-71
2022/06/26 09:59:55;;;;;;;;;;;27.60;43.40;;;;;;1578823;75;1942;-70
2022/06/26 10:06:36;;;;;;;;;;;27.40;43.60;;;;;;1585516;73;1603;-70
2022/06/26 10:08:39;;;;;;;;;;;27.40;43.40;;;;;;1586181;73;576;-69
2022/06/26 10:10:41;;;;;;;;;;;27.50;44.30;;;;;;1552265;75;798;-69
2022/06/26 10:12:43;;;;;;;;;;;27.50;43.50;;;;;;1541253;76;698;-70
2022/06/26 10:14:46;;;;;;;;;;;27.40;42.60;;;;;;1540795;76;1283;-69
2022/06/26 10:16:49;;;;;;;;;;;27.30;43.00;;;;;;1550163;75;776;-70
2022/06/26 10:19:08;;;;;;;;;;;27.20;42.70;;;;;;1548494;75;735;-69
2022/06/26 10:21:12;;;;;;;;;;;27.30;43.30;;;;;;1521560;77;1937;-70
2022/06/26 10:23:16;;;;;;;;;;;27.20;42.50;;;;;;1536924;76;1101;-70
2022/06/26 10:25:24;;;;;;;;;;;27.10;42.80;;;;;;1516644;76;1868;-70
2022/06/26 10:27:27;;;;;;;;;;;27.20;42.80;;;;;;1513796;77;690;-70
2022/06/26 10:29:38;;;;;;;;;;;27.20;42.90;;;;;;1511098;77;1587;-68
2022/06/26 10:31:44;;;;;;;;;;;27.20;42.40;;;;;;1549951;76;737;-70
2022/06/26 10:33:48;;;;;;;;;;;27.20;43.30;;;;;;1513035;77;1169;-70
2022/06/26 10:35:51;;;;;;;;;;;27.20;43.40;;;;;;1519512;77;1023;-70
2022/06/26 10:37:52;;;;;;;;;;;27.20;43.10;;;;;;1544420;76;777;-70
2022/06/26 10:39:55;;;;;;;;;;;27.20;42.80;;;;;;1541048;76;1934;-70
2022/06/26 10:44:18;;;;;;;;;;;27.20;43.10;;;;;;1542040;76;1703;-69
2022/06/26 10:46:21;;;;;;;;;;;27.20;43.10;;;;;;1540999;75;633;-68
2022/06/26 10:48:23;;;;;;;;;;;27.20;43.50;;;;;;1538740;75;753;-69
2022/06/26 10:50:27;;;;;;;;;;;27.40;43.30;;;;;;1540633;76;667;-69
2022/06/26 10:52:31;;;;;;;;;;;27.40;43.20;;;;;;1533199;77;777;-70
2022/06/26 10:54:35;;;;;;;;;;;27.50;42.90;;;;;;1526957;76;1137;-70
2022/06/26 10:56:36;;;;;;;;;;;27.50;42.70;;;;;;1533009;76;1685;-70
2022/06/26 10:58:41;;;;;;;;;;;27.40;42.60;;;;;;1538212;76;1593;-70
2022/06/26 11:00:43;;;;;;;;;;;27.30;42.40;;;;;;1532950;77;1908;-69
2022/06/26 11:02:45;;;;;;;;;;;27.20;42.40;;;;;;1530919;76;630;-69
2022/06/26 11:04:47;;;;;;;;;;;27.20;41.80;;;;;;1533318;76;1176;-71
2022/06/26 11:06:50;;;;;;;;;;;27.30;42.60;;;;;;1537172;76;711;-70
2022/06/26 11:08:52;;;;;;;;;;;27.10;42.10;;;;;;1532458;77;713;-70
2022/06/26 11:10:56;;;;;;;;;;;27.10;42.10;;;;;;1550214;75;763;-69
2022/06/26 11:12:58;;;;;;;;;;;27.20;42.60;;;;;;1548998;76;1923;-70
2022/06/26 11:14:59;;;;;;;;;;;27.20;42.90;;;;;;1544793;75;1092;-70
2022/06/26 11:17:01;;;;;;;;;;;27.30;42.90;;;;;;1549881;76;811;-70
2022/06/26 11:19:04;;;;;;;;;;;27.20;42.80;;;;;;1518609;77;711;-70
2022/06/26 11:21:06;;;;;;;;;;;27.20;42.80;;;;;;1519545;77;1939;-70
2022/06/26 11:23:14;;;;;;;;;;;27.20;42.80;;;;;;1540200;75;1173;-70
2022/06/26 11:25:17;;;;;;;;;;;27.20;43.00;;;;;;1551272;75;1560;-70
2022/06/26 11:27:20;;;;;;;;;;;27.10;43.10;;;;;;1522054;77;733;-69
2022/06/26 11:29:22;;;;;;;;;;;27.20;43.20;;;;;;1550985;75;1834;-70
2022/06/26 11:31:25;;;;;;;;;;;27.30;43.10;;;;;;1546629;76;546;-70
2022/06/26 11:33:28;;;;;;;;;;;27.20;42.60;;;;;;1531158;76;1164;-71
2022/06/26 11:35:30;;;;;;;;;;;27.30;42.60;;;;;;1533665;76;702;-70
2022/06/26 11:37:32;;;;;;;;;;;27.20;42.60;;;;;;1521539;77;720;-71
2022/06/26 11:39:39;;;;;;;;;;;27.10;42.60;;;;;;1529803;76;1554;-71
2022/06/26 11:41:41;;;;;;;;;;;27.20;42.60;;;;;;1529561;76;1919;-70
2022/06/26 11:43:50;;;;;;;;;;;27.20;42.80;;;;;;1524274;76;1127;-69
2022/06/26 11:45:52;;;;;;;;;;;27.10;42.90;;;;;;1534015;76;724;-70
2022/06/26 11:47:54;;;;;;;;;;;27.10;43.10;;;;;;1530719;77;754;-70
2022/06/26 11:49:56;;;;;;;;;;;27.10;42.40;;;;;;1522194;77;658;-70
2022/06/26 11:51:58;;;;;;;;;;;27.10;42.50;;;;;;1514928;77;718;-70
2022/06/26 11:54:00;;;;;;;;;;;27.10;42.80;;;;;;1529449;76;1563;-70
2022/06/26 11:56:02;;;;;;;;;;;27.10;42.80;;;;;;1536654;75;697;-71
2022/06/26 11:58:04;;;;;;;;;;;27.20;42.70;;;;;;1545500;76;791;-69
2022/06/26 12:00:06;;;;;;;;;;;27.10;42.60;;;;;;1545844;76;762;-71
2022/06/26 12:02:19;;;;;;;;;;;27.10;42.60;;;;;;1546758;75;1938;-70
2022/06/26 12:04:21;;;;;;;;;;;27.10;43.10;;;;;;1543525;75;1544;-70
2022/06/26 12:06:30;;;;;;;;;;;27.10;42.80;;;;;;1549699;75;756;-70
2022/06/26 12:08:32;;;;;;;;;;;27.10;43.10;;;;;;1529202;76;1581;-69
2022/06/26 12:10:35;;;;;;;;;;;27.10;43.40;;;;;;1512360;77;1077;-69
2022/06/26 12:12:37;;;;;;;;;;;27.10;43.20;;;;;;1525233;77;714;-70
2022/06/26 12:14:41;;;;;;;;;;;27.10;43.40;;;;;;1532243;76;1152;-70
2022/06/26 12:16:47;;;;;;;;;;;27.10;43.40;;;;;;1520671;77;1019;-70
2022/06/26 12:18:49;;;;;;;;;;;27.10;43.30;;;;;;1538419;75;752;-69
2022/06/26 12:20:51;;;;;;;;;;;27.10;43.10;;;;;;1516962;77;1914;-71